Time;durP1;ratioP1;P1;durP2;ratioP2;P2;SDS_P1;SDS_P2;PMS_P1;PMS_P2;Temp;Humidity;BMP_temperature;BMP_pressure;BME280_temperature;BME280_humidity;BME280_pressure;Samples;Min_cycle;Max_cycle;Signal;HPM_P1;HPM_P2
2021/09/25 00:00:38;;;;;;;3.53;2.42;;;;;;;9.33;84.59;95295.81;5095563;28;20032;-68
2021/09/25 00:03:06;;;;;;;4.05;2.08;;;;;;;9.24;86.56;95286.69;5100500;28;20131;-67
2021/09/25 00:05:36;;;;;;;3.97;2.20;;;;;;;9.22;86.28;95298.28;5098023;28;20135;-67
2021/09/25 00:08:05;;;;;;;6.97;2.88;;;;;;;9.17;85.76;95293.72;5099310;28;20424;-68
2021/09/25 00:10:33;;;;;;;5.15;2.63;;;;;;;9.09;86.55;95299.16;5098143;28;20105;-67
2021/09/25 00:13:00;;;;;;;5.25;2.83;;;;;;;8.97;87.31;95286.84;5098785;28;20040;-67
2021/09/25 00:15:29;;;;;;;5.47;2.10;;;;;;;8.74;90.11;95302.16;5099905;28;20101;-67
2021/09/25 00:17:58;;;;;;;4.65;2.17;;;;;;;8.74;88.95;95292.56;5100115;28;20464;-67
2021/09/25 00:20:25;;;;;;;5.50;3.20;;;;;;;8.32;91.41;95283.53;5099292;28;20394;-67
2021/09/25 00:22:53;;;;;;;3.78;1.90;;;;;;;8.51;90.57;95308.66;5096955;28;20039;-66
2021/09/25 00:25:20;;;;;;;3.70;2.42;;;;;;;8.48;89.00;95293.50;5095333;28;20050;-67
2021/09/25 00:27:47;;;;;;;4.22;2.58;;;;;;;8.42;89.96;95299.50;5098890;28;20477;-67
2021/09/25 00:30:16;;;;;;;4.03;2.63;;;;;;;8.47;89.64;95302.28;5098203;28;20035;-67
2021/09/25 00:32:43;;;;;;;4.35;2.65;;;;;;;8.46;89.66;95294.69;5100371;28;20071;-67
2021/09/25 00:35:11;;;;;;;4.90;2.47;;;;;;;8.46;89.64;95316.25;5094247;28;20066;-67
2021/09/25 00:37:38;;;;;;;5.40;2.03;;;;;;;8.39;90.02;95305.06;5100188;28;20044;-67
2021/09/25 00:40:07;;;;;;;3.78;2.25;;;;;;;8.41;89.21;95308.28;5098514;28;20051;-68
2021/09/25 00:42:34;;;;;;;4.10;2.10;;;;;;;8.48;89.76;95314.28;5099869;28;20100;-67
2021/09/25 00:45:01;;;;;;;4.30;2.47;;;;;;;8.43;90.42;95319.28;5098334;28;20040;-67
2021/09/25 00:47:27;;;;;;;4.95;2.83;;;;;;;8.37;90.74;95307.06;5094119;28;20530;-67
2021/09/25 00:49:54;;;;;;;14.40;8.30;;;;;;;8.49;91.26;95315.84;5099606;28;20046;-67
2021/09/25 00:52:21;;;;;;;11.75;6.28;;;;;;;8.54;91.20;95313.44;5099787;28;20043;-67
2021/09/25 00:54:49;;;;;;;12.93;6.80;;;;;;;8.51;90.83;95293.06;5092742;28;20044;-67
2021/09/25 00:57:16;;;;;;;11.85;7.00;;;;;;;8.60;90.41;95306.63;5100203;28;20048;-66
2021/09/25 00:59:44;;;;;;;6.28;3.85;;;;;;;8.59;89.63;95311.03;5096264;28;20516;-66
2021/09/25 01:02:11;;;;;;;7.80;4.30;;;;;;;8.54;89.04;95312.66;5097339;28;20462;-68
2021/09/25 01:04:38;;;;;;;10.55;4.60;;;;;;;8.51;88.67;95307.88;5096660;28;20119;-67
2021/09/25 01:07:05;;;;;;;7.03;3.88;;;;;;;8.33;88.56;95311.09;5096432;28;20101;-68
2021/09/25 01:09:32;;;;;;;8.23;4.18;;;;;;;8.33;88.21;95316.28;5097495;28;20516;-67
2021/09/25 01:11:59;;;;;;;9.23;4.93;;;;;;;8.27;87.70;95306.72;5097950;28;20036;-67
2021/09/25 01:14:29;;;;;;;7.40;3.75;;;;;;;8.23;87.40;95312.31;5095564;28;20047;-67
2021/09/25 01:17:06;;;;;;;5.38;3.28;;;;;;;8.18;87.38;95314.72;5095959;28;20482;-68
2021/09/25 01:19:37;;;;;;;5.82;3.35;;;;;;;8.13;87.35;95311.94;5096781;28;20043;-68
2021/09/25 01:22:05;;;;;;;6.53;3.30;;;;;;;8.00;87.69;95292.00;5098357;28;20096;-67
2021/09/25 01:24:32;;;;;;;7.20;3.88;;;;;;;8.12;87.51;95320.72;5094121;28;20036;-67
2021/09/25 01:26:59;;;;;;;7.45;3.25;;;;;;;8.11;87.50;95319.13;5095907;28;20050;-67
2021/09/25 01:29:27;;;;;;;7.47;3.22;;;;;;;8.05;87.79;95314.75;5096001;28;22282;-67
2021/09/25 01:35:50;;;;;;;4.25;2.03;;;;;;;7.99;88.99;95325.94;5095153;28;20066;-67
2021/09/25 01:38:17;;;;;;;6.65;2.58;;;;;;;7.92;89.26;95319.97;5096364;28;20040;-67
2021/09/25 01:40:44;;;;;;;4.10;2.42;;;;;;;7.81;89.53;95296.25;5099302;28;20110;-67
2021/09/25 01:43:11;;;;;;;6.22;2.45;;;;;;;7.96;89.20;95323.72;5092962;28;20059;-67
2021/09/25 01:45:38;;;;;;;6.35;2.92;;;;;;;7.99;89.22;95320.75;5101964;28;20039;-67
2021/09/25 01:48:05;;;;;;;5.38;3.08;;;;;;;7.99;89.22;95325.94;5098014;28;20058;-67
2021/09/25 01:50:32;;;;;;;5.50;2.70;;;;;;;7.90;89.09;95298.63;5095223;28;20493;-67
2021/09/25 01:52:58;;;;;;;5.68;2.30;;;;;;;7.96;88.70;95311.59;5095257;28;20114;-67
2021/09/25 01:55:25;;;;;;;4.80;1.83;;;;;;;7.97;89.50;95322.75;5098081;28;20039;-67
2021/09/25 01:57:52;;;;;;;3.70;2.17;;;;;;;7.96;89.77;95321.97;5100397;28;20054;-67
2021/09/25 02:00:19;;;;;;;4.78;2.22;;;;;;;7.96;89.55;95326.31;5100181;28;20035;-67
2021/09/25 02:02:46;;;;;;;4.70;3.05;;;;;;;7.93;89.59;95321.56;5103590;28;20035;-67
2021/09/25 02:05:15;;;;;;;6.28;2.55;;;;;;;7.92;89.39;95325.13;5098434;28;20044;-67
2021/09/25 02:07:42;;;;;;;7.18;3.65;;;;;;;7.85;89.59;95318.19;5096514;28;20032;-67
2021/09/25 02:10:09;;;;;;;6.93;3.45;;;;;;;7.91;89.85;95334.72;5100703;28;20492;-67
2021/09/25 02:12:37;;;;;;;4.28;2.35;;;;;;;7.93;89.95;95342.31;5100063;28;20040;-67
2021/09/25 02:15:05;;;;;;;4.15;2.10;;;;;;;7.87;89.53;95338.72;5099998;28;20047;-67
2021/09/25 02:17:32;;;;;;;3.63;2.30;;;;;;;7.78;91.10;95334.75;5101917;28;20100;-67
2021/09/25 02:19:59;;;;;;;4.63;2.55;;;;;;;7.88;90.51;95350.69;5098987;28;20508;-67
2021/09/25 02:22:26;;;;;;;4.57;2.10;;;;;;;7.78;90.44;95345.91;5098506;28;20052;-67
2021/09/25 02:24:53;;;;;;;7.28;2.95;;;;;;;7.81;90.15;95347.28;5102650;28;20497;-68
2021/09/25 02:27:20;;;;;;;4.10;2.15;;;;;;;7.81;89.83;95361.09;5100615;28;20436;-67
2021/09/25 02:29:47;;;;;;;4.53;2.45;;;;;;;7.74;89.77;95360.28;5100264;28;20043;-67
2021/09/25 02:32:14;;;;;;;4.38;1.92;;;;;;;7.73;89.48;95363.88;5104694;28;20039;-67
2021/09/25 02:34:40;;;;;;;7.38;2.70;;;;;;;7.70;89.39;95366.84;5099561;28;20040;-67
2021/09/25 02:37:07;;;;;;;7.65;2.58;;;;;;;7.56;89.48;95347.09;5101744;28;20039;-67
2021/09/25 02:39:35;;;;;;;4.68;2.67;;;;;;;7.61;89.32;95360.25;5103970;28;20049;-67
2021/09/25 02:42:03;;;;;;;5.15;2.60;;;;;;;7.62;89.69;95362.66;5105391;28;20447;-67
2021/09/25 02:44:29;;;;;;;3.70;2.20;;;;;;;7.57;89.75;95362.47;5097126;28;20039;-67
2021/09/25 02:46:57;;;;;;;5.10;2.47;;;;;;;7.53;90.27;95373.44;5104321;28;20509;-67
2021/09/25 02:49:23;;;;;;;7.63;2.38;;;;;;;7.51;90.30;95372.81;5102786;28;20504;-67
2021/09/25 02:51:50;;;;;;;6.15;2.47;;;;;;;7.50;90.07;95369.44;5098330;28;21306;-67
2021/09/25 02:54:17;;;;;;;4.80;2.90;;;;;;;7.42;90.38;95367.84;5101730;28;20125;-67
2021/09/25 02:56:44;;;;;;;5.38;2.70;;;;;;;7.33;90.58;95363.84;5106054;28;20047;-66
2021/09/25 02:59:10;;;;;;;9.65;2.65;;;;;;;7.44;90.91;95386.56;5097191;28;20553;-67
2021/09/25 03:01:45;;;;;;;4.70;2.45;;;;;;;7.46;90.72;95384.56;5105594;28;20040;-67
2021/09/25 03:04:12;;;;;;;40.33;21.35;;;;;;;7.37;91.29;95385.75;5100076;28;20051;-67
2021/09/25 03:06:39;;;;;;;25.77;14.73;;;;;;;7.34;91.38;95391.34;5096941;28;20054;-67
2021/09/25 03:09:05;;;;;;;28.20;15.50;;;;;;;7.35;91.47;95392.94;5108690;28;20044;-68
2021/09/25 03:11:32;;;;;;;21.92;12.98;;;;;;;7.34;91.56;95391.34;5100266;28;20036;-67
2021/09/25 03:13:59;;;;;;;19.85;11.20;;;;;;;7.28;91.93;95382.56;5103073;28;20047;-67
2021/09/25 03:16:26;;;;;;;21.98;12.32;;;;;;;7.31;92.10;95386.56;5097644;28;20040;-67
2021/09/25 03:18:52;;;;;;;15.10;8.40;;;;;;;7.28;92.30;95385.13;5097622;28;20463;-67
2021/09/25 03:21:19;;;;;;;6.72;4.47;;;;;;;7.41;92.07;95397.31;5102319;28;20447;-67
2021/09/25 03:23:46;;;;;;;10.07;5.43;;;;;;;7.38;92.23;95397.75;5100256;28;20047;-67
2021/09/25 03:26:13;;;;;;;7.43;3.97;;;;;;;7.33;93.35;95400.13;5104572;28;20105;-67
2021/09/25 03:28:40;;;;;;;6.57;4.30;;;;;;;7.15;96.10;95407.63;5101484;28;20428;-67
2021/09/25 03:31:07;;;;;;;10.82;4.80;;;;;;;6.97;97.01;95401.22;5103310;28;20028;-67
2021/09/25 03:33:34;;;;;;;9.32;4.70;;;;;;;6.98;98.91;95423.50;5102430;28;20050;-67
2021/09/25 03:36:00;;;;;;;10.50;5.22;;;;;;;6.95;98.76;95417.91;5101632;28;20114;-67
2021/09/25 03:38:29;;;;;;;8.35;4.35;;;;;;;6.86;99.78;95430.22;5104567;28;20047;-67
2021/09/25 03:40:56;;;;;;;7.18;3.95;;;;;;;6.91;99.25;95427.88;5097529;28;20059;-67
2021/09/25 03:43:22;;;;;;;8.00;3.60;;;;;;;7.01;98.35;95417.94;5097854;28;20040;-68
2021/09/25 03:45:49;;;;;;;9.85;3.50;;;;;;;7.16;96.56;95429.94;5097450;28;20574;-67
2021/09/25 03:48:16;;;;;;;4.55;2.85;;;;;;;7.24;95.40;95424.63;5102624;28;20497;-68
2021/09/25 03:50:43;;;;;;;5.15;3.28;;;;;;;7.24;94.80;95414.25;5100551;28;20048;-67
2021/09/25 03:53:10;;;;;;;5.65;3.20;;;;;;;7.29;94.47;95424.78;5099453;28;20154;-67
2021/09/25 03:55:37;;;;;;;6.03;2.97;;;;;;;7.26;93.81;95420.81;5101603;28;20085;-67
2021/09/25 03:58:04;;;;;;;4.68;2.53;;;;;;;7.27;93.21;95424.19;5101693;28;20040;-67
2021/09/25 04:00:30;;;;;;;8.85;4.13;;;;;;;7.35;93.23;95434.41;5108479;28;20565;-68
2021/09/25 04:02:57;;;;;;;4.88;2.75;;;;;;;7.34;93.73;95450.13;5102308;28;20391;-67
2021/09/25 04:05:24;;;;;;;7.72;3.40;;;;;;;7.35;93.85;95449.94;5098254;28;20515;-67
2021/09/25 04:07:51;;;;;;;4.47;2.70;;;;;;;7.36;94.00;95454.13;5097344;28;20040;-68
2021/09/25 04:10:18;;;;;;;5.75;2.22;;;;;;;7.35;94.27;95443.97;5099529;28;20051;-67
2021/09/25 04:12:45;;;;;;;6.65;3.35;;;;;;;7.37;94.25;95447.16;5095645;28;20043;-68
2021/09/25 04:15:12;;;;;;;9.38;3.97;;;;;;;7.30;93.82;95441.97;5102958;28;20512;-66
2021/09/25 04:17:39;;;;;;;7.35;3.47;;;;;;;7.34;93.42;95452.72;5095146;28;20503;-67
2021/09/25 04:20:07;;;;;;;5.35;2.95;;;;;;;7.35;93.13;95457.72;5097914;28;20097;-67
2021/09/25 04:22:34;;;;;;;9.23;3.38;;;;;;;7.28;92.54;95454.31;5098506;28;20035;-67
2021/09/25 04:25:00;;;;;;;5.57;3.13;;;;;;;7.30;92.85;95467.06;5096156;28;20044;-67
2021/09/25 04:27:29;;;;;;;5.10;3.17;;;;;;;7.27;93.69;95468.25;5098149;28;20035;-67
2021/09/25 04:29:58;;;;;;;5.38;2.90;;;;;;;7.23;93.55;95464.44;5099735;27;20985;-67
2021/09/25 04:32:25;;;;;;;11.70;3.70;;;;;;;7.23;95.02;95483.38;5103430;28;20032;-67
2021/09/25 04:34:52;;;;;;;9.05;3.72;;;;;;;7.21;95.33;95482.00;5099963;28;20429;-66
2021/09/25 04:37:19;;;;;;;5.25;2.83;;;;;;;7.24;95.00;95473.84;5096910;28;20558;-68
2021/09/25 04:39:46;;;;;;;9.10;3.22;;;;;;;7.35;94.65;95486.22;5094983;28;20425;-67
2021/09/25 04:42:13;;;;;;;4.45;2.95;;;;;;;7.35;94.85;95490.63;5094835;28;20048;-67
2021/09/25 04:44:40;;;;;;;19.58;4.30;;;;;;;7.38;94.79;95496.22;5093664;28;20121;-67
2021/09/25 04:47:07;;;;;;;10.07;3.55;;;;;;;7.41;94.48;95501.00;5100655;28;20512;-67
2021/09/25 04:49:34;;;;;;;7.70;3.40;;;;;;;7.44;93.98;95494.63;5099681;28;20484;-67
2021/09/25 04:52:01;;;;;;;8.20;4.35;;;;;;;7.45;93.81;95497.03;5097374;28;20047;-67
2021/09/25 04:54:27;;;;;;;5.90;3.40;;;;;;;7.33;94.04;95485.63;5096690;28;20103;-68
2021/09/25 04:56:54;;;;;;;8.85;3.80;;;;;;;7.47;93.93;95510.59;5096396;28;20176;-68
2021/09/25 04:59:21;;;;;;;7.15;3.33;;;;;;;7.45;94.20;95504.81;5092420;28;20119;-68
2021/09/25 05:01:47;;;;;;;5.72;3.10;;;;;;;7.50;94.34;95503.41;5094253;28;20462;-68
2021/09/25 05:04:15;;;;;;;9.38;3.83;;;;;;;7.55;95.11;95501.06;5096498;28;20058;-67
2021/09/25 05:06:42;;;;;;;9.18;3.50;;;;;;;7.62;95.70;95501.88;5098149;28;20048;-67
2021/09/25 05:09:08;;;;;;;7.78;3.22;;;;;;;7.68;97.33;95511.44;5098350;28;20064;-67
2021/09/25 05:11:35;;;;;;;7.85;3.88;;;;;;;7.50;96.90;95508.59;5095419;28;20051;-67
2021/09/25 05:14:02;;;;;;;7.72;3.53;;;;;;;7.56;96.97;95518.19;5098015;28;20047;-67
2021/09/25 05:16:30;;;;;;;13.07;5.53;;;;;;;7.75;96.58;95527.03;5096251;28;20044;-67
2021/09/25 05:18:57;;;;;;;9.50;5.32;;;;;;;7.74;96.73;95523.63;5097025;28;20117;-67
2021/09/25 05:21:24;;;;;;;7.60;3.28;;;;;;;7.78;96.79;95532.63;5099340;28;20090;-68
2021/09/25 05:23:51;;;;;;;6.95;2.83;;;;;;;7.88;96.37;95532.22;5095922;28;20044;-67
2021/09/25 05:26:18;;;;;;;7.80;3.72;;;;;;;7.99;96.34;95546.41;5099562;28;20048;-68
2021/09/25 05:28:45;;;;;;;10.98;7.05;;;;;;;8.04;96.21;95550.03;5094504;28;20065;-67
2021/09/25 05:31:12;;;;;;;19.05;12.27;;;;;;;8.12;96.40;95538.69;5100295;28;20497;-68
2021/09/25 05:33:39;;;;;;;15.25;8.77;;;;;;;8.09;96.40;95518.31;5100375;28;20096;-67
2021/09/25 05:36:06;;;;;;;12.77;8.93;;;;;;;8.27;96.87;95533.28;5103211;28;20043;-67
2021/09/25 05:38:33;;;;;;;11.25;6.90;;;;;;;8.34;96.87;95536.69;5096545;28;20055;-68
2021/09/25 05:41:00;;;;;;;7.45;4.55;;;;;;;8.54;97.36;95554.91;5101190;28;20444;-68
2021/09/25 05:43:27;;;;;;;6.25;3.42;;;;;;;8.65;98.69;95542.31;5102745;28;20101;-68
2021/09/25 05:45:54;;;;;;;6.20;3.00;;;;;;;8.84;98.01;95536.31;5100684;28;20428;-67
2021/09/25 05:48:21;;;;;;;5.95;3.10;;;;;;;9.03;97.59;95529.47;5095204;28;20039;-68
2021/09/25 05:50:47;;;;;;;4.35;2.65;;;;;;;9.26;97.09;95552.41;5101276;28;20476;-67
2021/09/25 05:53:14;;;;;;;5.15;3.55;;;;;;;9.31;96.16;95544.78;5097111;28;20048;-67
2021/09/25 05:55:41;;;;;;;4.70;2.65;;;;;;;9.54;95.68;95557.31;5101500;28;20040;-67
2021/09/25 05:58:08;;;;;;;6.50;3.22;;;;;;;9.61;95.60;95541.66;5096848;28;20039;-67
2021/09/25 06:00:34;;;;;;;5.18;3.20;;;;;;;9.83;94.62;95552.59;5100644;28;20044;-67
2021/09/25 06:03:07;;;;;;;6.03;2.60;;;;;;;10.01;91.71;95557.09;5101753;28;20268;-68
2021/09/25 06:05:34;;;;;;;7.90;3.38;;;;;;;10.23;88.53;95559.34;5100349;28;20043;-68
2021/09/25 06:08:03;;;;;;;4.53;2.72;;;;;;;10.43;87.99;95560.03;5104925;28;20048;-68
2021/09/25 06:10:31;;;;;;;7.03;3.90;;;;;;;10.56;87.42;95558.34;5096285;28;20475;-68
2021/09/25 06:12:58;;;;;;;6.68;2.70;;;;;;;10.69;86.93;95558.22;5096686;28;20045;-67
2021/09/25 06:15:25;;;;;;;5.75;3.58;;;;;;;10.80;85.74;95554.91;5105128;28;20066;-67
2021/09/25 06:17:52;;;;;;;6.43;3.05;;;;;;;11.03;85.25;95569.16;5101623;28;20405;-67
2021/09/25 06:20:19;;;;;;;4.38;2.42;;;;;;;11.18;83.88;95572.22;5097587;28;20056;-68
2021/09/25 06:22:46;;;;;;;5.18;2.80;;;;;;;11.27;82.94;95560.50;5098840;28;20409;-69
2021/09/25 06:25:13;;;;;;;6.13;3.83;;;;;;;11.54;82.58;95573.25;5093464;28;20097;-68
2021/09/25 06:27:39;;;;;;;7.53;3.17;;;;;;;11.64;81.56;95570.91;5098408;28;20040;-67
2021/09/25 06:30:07;;;;;;;5.05;3.05;;;;;;;11.91;80.41;95565.41;5101237;28;20036;-68
2021/09/25 06:32:34;;;;;;;5.45;3.30;;;;;;;12.03;80.43;95576.69;5095656;28;20044;-68
2021/09/25 06:35:03;;;;;;;5.78;3.20;;;;;;;12.22;80.11;95581.84;5098857;28;20050;-67
2021/09/25 06:37:30;;;;;;;4.85;3.00;;;;;;;12.40;79.30;95573.94;5094928;28;20090;-67
2021/09/25 06:39:57;;;;;;;4.68;2.42;;;;;;;12.54;79.33;95558.09;5101230;28;20107;-67
2021/09/25 06:42:24;;;;;;;6.22;2.83;;;;;;;12.78;78.59;95567.56;5101790;28;20070;-67
2021/09/25 06:44:51;;;;;;;5.43;2.88;;;;;;;12.82;78.93;95560.84;5097931;28;20043;-67
2021/09/25 06:47:18;;;;;;;5.78;3.42;;;;;;;13.03;77.99;95582.22;5092737;28;20048;-67
2021/09/25 06:49:45;;;;;;;5.03;3.05;;;;;;;13.13;78.73;95582.44;5095167;28;20623;-67
2021/09/25 06:52:12;;;;;;;6.72;3.45;;;;;;;13.24;77.19;95569.59;5091813;28;20073;-67
2021/09/25 06:54:39;;;;;;;4.97;2.97;;;;;;;13.31;77.00;95572.91;5094499;28;20043;-67
2021/09/25 06:57:06;;;;;;;4.38;3.05;;;;;;;13.41;75.92;95583.56;5099662;28;20040;-67
2021/09/25 06:59:33;;;;;;;4.30;2.58;;;;;;;13.52;76.58;95588.00;5096625;28;20093;-67
2021/09/25 07:02:01;;;;;;;18.48;8.02;;;;;;;13.62;74.06;95586.63;5096996;28;20044;-67
2021/09/25 07:04:28;;;;;;;5.95;3.78;;;;;;;13.81;73.87;95572.34;5098260;28;20043;-68
2021/09/25 07:06:55;;;;;;;5.75;3.25;;;;;;;13.94;73.51;95577.31;5099071;28;20048;-67
2021/09/25 07:09:21;;;;;;;5.95;3.45;;;;;;;14.07;72.37;95591.94;5094651;28;20121;-68
2021/09/25 07:11:48;;;;;;;5.05;2.75;;;;;;;14.25;72.52;95593.59;5093058;28;20125;-68
2021/09/25 07:14:15;;;;;;;6.72;3.40;;;;;;;14.44;72.09;95581.09;5097886;28;20048;-67
2021/09/25 07:16:42;;;;;;;5.95;3.83;;;;;;;14.54;70.73;95575.19;5096879;28;20470;-67
2021/09/25 07:19:09;;;;;;;5.57;3.58;;;;;;;14.83;71.69;95588.28;5100277;28;20801;-67
2021/09/25 07:21:36;;;;;;;8.60;3.60;;;;;;;15.07;70.84;95594.13;5097684;28;20108;-66
2021/09/25 07:24:03;;;;;;;5.65;3.58;;;;;;;15.25;69.66;95590.44;5098710;28;20036;-67
2021/09/25 07:26:30;;;;;;;7.38;3.97;;;;;;;15.43;69.25;95598.06;5094581;28;20463;-67
2021/09/25 07:28:57;;;;;;;4.75;2.88;;;;;;;15.61;68.95;95594.38;5095000;28;20073;-66
2021/09/25 07:31:23;;;;;;;5.60;3.08;;;;;;;15.76;67.37;95591.16;5093842;28;20101;-67
2021/09/25 07:33:50;;;;;;;6.10;3.55;;;;;;;15.96;66.86;95600.31;5094975;28;20060;-67
2021/09/25 07:36:17;;;;;;;5.95;3.50;;;;;;;16.10;66.07;95595.44;5098587;28;20050;-68
2021/09/25 07:38:44;;;;;;;5.55;3.38;;;;;;;16.20;66.13;95587.69;5097364;28;20050;-65
2021/09/25 07:41:10;;;;;;;5.00;2.47;;;;;;;16.38;64.60;95591.78;5100514;28;20047;-64
2021/09/25 07:43:37;;;;;;;4.82;3.20;;;;;;;16.48;64.31;95586.66;5099736;28;20093;-64
2021/09/25 07:46:04;;;;;;;6.47;3.10;;;;;;;16.69;63.52;95586.81;5099280;28;20078;-64
2021/09/25 07:48:31;;;;;;;5.72;3.80;;;;;;;16.72;63.00;95581.06;5096731;28;20044;-65
2021/09/25 07:50:58;;;;;;;4.65;3.63;;;;;;;16.94;62.07;95584.44;5090885;28;20509;-64
2021/09/25 07:53:24;;;;;;;9.10;2.95;;;;;;;17.13;62.27;95586.66;5094154;28;21649;-65
2021/09/25 07:55:51;;;;;;;7.75;4.35;;;;;;;17.28;62.45;95576.19;5098242;28;20077;-64
2021/09/25 07:58:18;;;;;;;6.53;3.20;;;;;;;17.53;62.17;95595.81;5094384;28;20048;-65
2021/09/25 08:00:46;;;;;;;6.00;3.22;;;;;;;17.68;61.41;95588.00;5096966;28;20486;-65
2021/09/25 08:03:13;;;;;;;6.78;3.22;;;;;;;17.70;60.65;95593.81;5096783;28;20035;-65
2021/09/25 08:05:40;;;;;;;6.28;3.05;;;;;;;17.75;60.51;95587.75;5099312;28;20385;-65
2021/09/25 08:08:07;;;;;;;7.28;3.20;;;;;;;17.88;61.58;95583.88;5096273;28;20051;-65
2021/09/25 08:10:34;;;;;;;6.95;3.92;;;;;;;17.96;61.10;95562.31;5095082;28;20052;-68
2021/09/25 08:13:01;;;;;;;6.70;4.05;;;;;;;18.26;60.34;95576.63;5091555;28;20421;-65
2021/09/25 08:15:49;;;;;;;4.15;2.72;;;;;;;18.40;58.60;95577.69;5093741;28;20048;-65
2021/09/25 08:18:17;;;;;;;4.68;2.92;;;;;;;18.58;59.62;95583.50;5098364;28;20097;-65
2021/09/25 08:20:44;;;;;;;5.95;3.45;;;;;;;18.70;58.50;95568.22;5093922;28;20043;-65
2021/09/25 08:23:12;;;;;;;4.53;3.08;;;;;;;18.75;58.09;95562.94;5099525;28;20439;-65
2021/09/25 08:25:39;;;;;;;7.30;3.78;;;;;;;18.93;57.73;95560.84;5097979;28;20043;-65
2021/09/25 08:28:05;;;;;;;4.85;3.58;;;;;;;19.05;56.65;95561.34;5097392;27;20089;-65
2021/09/25 08:30:33;;;;;;;3.63;2.70;;;;;;;19.11;56.36;95570.84;5099641;28;20039;-65
2021/09/25 08:32:59;;;;;;;4.20;3.05;;;;;;;19.26;55.41;95568.16;5095472;28;20486;-65
2021/09/25 08:35:26;;;;;;;4.65;3.25;;;;;;;19.44;56.05;95574.72;5095608;28;20104;-65
2021/09/25 08:37:53;;;;;;;4.10;2.28;;;;;;;19.56;54.29;95571.78;5093255;28;20044;-65
2021/09/25 08:40:22;;;;;;;5.43;3.60;;;;;;;19.63;54.74;95567.03;5097163;28;20450;-65
2021/09/25 08:42:50;;;;;;;7.35;2.67;;;;;;;19.92;54.25;95563.75;5093104;28;20044;-65
2021/09/25 08:45:18;;;;;;;7.47;3.75;;;;;;;20.10;53.50;95558.91;5093264;28;20370;-65
2021/09/25 08:47:45;;;;;;;4.18;2.67;;;;;;;20.26;52.32;95552.47;5090306;28;20502;-65
2021/09/25 08:50:14;;;;;;;3.20;2.20;;;;;;;20.40;51.30;95558.72;5092577;28;20458;-66
2021/09/25 08:52:42;;;;;;;3.60;1.92;;;;;;;20.58;51.58;95559.09;5094404;28;20032;-65
2021/09/25 08:55:11;;;;;;;3.10;2.00;;;;;;;20.66;51.04;95565.72;5093886;28;20041;-65
2021/09/25 08:57:42;;;;;;;3.40;2.30;;;;;;;20.73;51.03;95551.09;5097894;28;20071;-66
2021/09/25 09:00:27;;;;;;;4.38;2.10;;;;;;;20.98;49.47;95562.53;5095052;28;20097;-66
2021/09/25 09:02:54;;;;;;;3.17;2.25;;;;;;;21.05;49.58;95563.00;5095257;28;20112;-65
2021/09/25 09:05:31;;;;;;;5.00;2.28;;;;;;;21.20;49.92;95557.53;5092789;28;20402;-65
2021/09/25 09:08:01;;;;;;;6.20;2.50;;;;;;;21.34;49.30;95554.25;5094465;28;20097;-66
2021/09/25 09:10:36;;;;;;;3.92;2.47;;;;;;;21.49;48.45;95559.38;5094258;28;20074;-65
2021/09/25 09:13:05;;;;;;;3.85;2.35;;;;;;;21.53;47.54;95535.75;5089966;28;20032;-65
2021/09/25 09:15:39;;;;;;;3.53;2.60;;;;;;;21.58;47.24;95533.84;5089917;28;20056;-66
2021/09/25 09:18:14;;;;;;;3.67;2.50;;;;;;;21.89;47.39;95554.66;5090916;28;20055;-65
2021/09/25 09:21:04;;;;;;;3.28;2.00;;;;;;;22.23;46.63;95537.75;5095910;28;20044;-66
2021/09/25 09:23:32;;;;;;;4.53;2.10;;;;;;;22.56;45.57;95551.09;5094484;28;20036;-65
2021/09/25 09:26:00;;;;;;;3.33;1.90;;;;;;;22.77;43.98;95545.47;5092837;28;20066;-65
2021/09/25 09:28:31;;;;;;;3.90;2.53;;;;;;;23.05;41.42;95552.47;5091119;28;20097;-65
2021/09/25 09:31:01;;;;;;;2.38;1.60;;;;;;;23.14;41.71;95549.13;5089717;28;20451;-66
2021/09/25 09:33:44;;;;;;;3.22;2.35;;;;;;;23.37;41.56;95564.13;5093488;28;20051;-65
2021/09/25 09:36:28;;;;;;;2.95;2.03;;;;;;;23.38;41.15;95555.06;5094056;28;22697;-66
2021/09/25 09:39:27;;;;;;;11.02;3.03;;;;;;;23.50;41.67;95551.13;5095425;28;20059;-65
2021/09/25 09:41:55;;;;;;;3.05;2.03;;;;;;;23.84;41.20;95567.50;5072550;28;20055;-65
2021/09/25 09:44:25;;;;;;;3.47;2.20;;;;;;;23.75;41.65;95555.94;5088411;28;20485;-66
2021/09/25 09:46:54;;;;;;;4.35;2.45;;;;;;;23.92;41.25;95557.25;5095411;28;20055;-66
2021/09/25 09:49:30;;;;;;;3.05;1.75;;;;;;;24.12;39.51;95564.78;5094185;28;20073;-66
2021/09/25 09:52:11;;;;;;;4.70;1.52;;;;;;;24.12;38.98;95566.66;5094914;28;20048;-65
2021/09/25 09:54:40;;;;;;;4.15;2.08;;;;;;;24.21;38.81;95543.56;5093224;28;20048;-65
2021/09/25 09:57:11;;;;;;;2.60;1.65;;;;;;;24.84;38.85;95565.06;5097282;28;20055;-66
2021/09/25 09:59:40;;;;;;;2.28;2.08;;;;;;;25.27;38.15;95559.97;5095307;28;20501;-66
2021/09/25 10:02:08;;;;;;;1.95;1.70;;;;;;;25.48;37.25;95556.75;5093741;28;20089;-66
2021/09/25 10:04:37;;;;;;;4.50;1.52;;;;;;;25.56;37.63;95553.34;5087216;28;20048;-66
2021/09/25 10:07:05;;;;;;;3.58;1.95;;;;;;;25.62;36.62;95546.00;5091490;28;20040;-65
2021/09/25 10:09:34;;;;;;;2.45;1.77;;;;;;;25.76;35.64;95546.66;5091369;27;20051;-65
2021/09/25 10:12:13;;;;;;;2.15;1.58;;;;;;;25.94;36.01;95536.84;5089472;28;20081;-66
2021/09/25 10:14:43;;;;;;;2.78;1.45;;;;;;;26.12;36.09;95559.78;5091390;27;20051;-67
2021/09/25 10:17:11;;;;;;;3.03;1.92;;;;;;;25.99;35.41;95544.69;5093107;28;20087;-66
2021/09/25 10:19:41;;;;;;;3.97;2.25;;;;;;;26.34;35.40;95544.72;5099775;28;20043;-67
2021/09/25 10:22:18;;;;;;;1.95;1.75;;;;;;;26.35;34.72;95558.88;5097915;28;20043;-66
2021/09/25 10:24:51;;;;;;;2.53;1.90;;;;;;;26.43;34.67;95547.38;5100582;28;20051;-66
2021/09/25 10:27:19;;;;;;;2.28;1.33;;;;;;;26.62;35.62;95549.78;5097336;28;20047;-66
2021/09/25 10:29:51;;;;;;;2.08;1.33;;;;;;;26.80;33.51;95518.47;5102036;28;20046;-66
2021/09/25 10:32:27;;;;;;;2.85;1.45;;;;;;;27.22;33.15;95535.47;5098570;28;20043;-67
2021/09/25 10:35:17;;;;;;;2.15;1.45;;;;;;;27.06;32.60;95558.50;5096165;28;20051;-66
2021/09/25 10:37:51;;;;;;;2.35;1.50;;;;;;;26.67;33.39;95541.59;5100859;28;20044;-66
2021/09/25 10:40:42;;;;;;;2.58;1.45;;;;;;;26.96;33.13;95538.25;5097455;28;20209;-67
2021/09/25 10:43:24;;;;;;;2.58;1.88;;;;;;;27.27;32.19;95540.69;5098806;28;20095;-66
2021/09/25 10:45:53;;;;;;;2.38;1.65;;;;;;;27.25;31.98;95540.19;5098221;28;20081;-66
2021/09/25 10:48:23;;;;;;;2.58;1.60;;;;;;;27.15;32.42;95535.19;5098833;28;20085;-66
2021/09/25 10:50:51;;;;;;;1.58;1.23;;;;;;;27.27;32.69;95524.63;5097426;28;20092;-67
2021/09/25 10:53:32;;;;;;;2.53;1.75;;;;;;;27.32;31.89;95529.03;5097815;28;20036;-66
2021/09/25 10:56:03;;;;;;;1.98;1.65;;;;;;;27.69;31.55;95539.25;5095040;28;20408;-66
2021/09/25 10:58:36;;;;;;;4.32;2.38;;;;;;;27.93;31.84;95523.38;5093418;28;20386;-67
2021/09/25 11:01:13;;;;;;;2.33;1.52;;;;;;;27.74;30.98;95513.06;5096716;28;20047;-66
2021/09/25 11:03:43;;;;;;;2.30;1.75;;;;;;;27.90;30.69;95532.06;5100130;28;20063;-66
2021/09/25 11:06:28;;;;;;;2.60;1.65;;;;;;;28.21;30.20;95528.22;5091218;28;20047;-67
2021/09/25 11:08:56;;;;;;;2.00;1.38;;;;;;;28.32;30.09;95520.56;5093401;28;20060;-66
2021/09/25 11:11:57;;;;;;;3.80;1.30;;;;;;;28.81;29.72;95525.34;5094157;28;20050;-66
2021/09/25 11:14:56;;;;;;;2.20;1.50;;;;;;;28.66;29.25;95519.50;5057624;28;20058;-66
2021/09/25 11:17:29;;;;;;;2.13;1.77;;;;;;;28.85;29.25;95512.88;5089153;28;20047;-66
2021/09/25 11:20:02;;;;;;;6.65;1.83;;;;;;;28.99;29.07;95516.00;5097501;28;20040;-66
2021/09/25 11:22:30;;;;;;;2.80;1.60;;;;;;;29.26;28.87;95508.47;5096224;28;20047;-66
2021/09/25 11:25:00;;;;;;;1.88;1.15;;;;;;;29.25;28.32;95512.31;5084227;28;20812;-65
2021/09/25 11:27:29;;;;;;;3.65;2.28;;;;;;;29.37;28.67;95509.63;5089410;28;20035;-66
2021/09/25 11:30:09;;;;;;;3.15;1.02;;;;;;;29.58;27.86;95506.03;5088855;28;20520;-66
2021/09/25 11:32:43;;;;;;;3.60;1.50;;;;;;;29.56;27.81;95509.06;5092266;28;20611;-66
2021/09/25 11:35:23;;;;;;;14.35;7.00;;;;;;;28.92;28.45;95489.00;5096707;28;20066;-65
2021/09/25 11:38:03;;;;;;;3.63;1.60;;;;;;;28.83;29.90;95507.03;5093398;28;20063;-65
2021/09/25 11:40:40;;;;;;;15.43;8.38;;;;;;;28.86;29.26;95511.75;5094572;28;20761;-66
2021/09/25 11:43:14;;;;;;;4.07;2.15;;;;;;;29.28;29.41;95496.31;5093680;28;20093;-66
2021/09/25 11:45:45;;;;;;;;;;;;;;;29.54;27.69;95498.66;5093642;28;20036;-66
2021/09/25 11:48:15;;;;;;;2.15;1.50;;;;;;;29.75;27.67;95492.41;5093094;28;20368;-65